sensor_id;sensor_type;location;lat;lon;timestamp;P1;durP1;ratioP1;P2;durP2;ratioP2
22078;SDS011;11206;57.696;11.944;2022-11-15T00:01:59;6.63;;;2.15;;
22078;SDS011;11206;57.696;11.944;2022-11-15T00:04:25;5.40;;;2.42;;
22078;SDS011;11206;57.696;11.944;2022-11-15T00:06:51;6.53;;;2.40;;
22078;SDS011;11206;57.696;11.944;2022-11-15T00:09:17;4.90;;;1.77;;
22078;SDS011;11206;57.696;11.944;2022-11-15T00:11:43;8.60;;;1.80;;
22078;SDS011;11206;57.696;11.944;2022-11-15T00:14:09;2.65;;;1.42;;
22078;SDS011;11206;57.696;11.944;2022-11-15T00:16:36;6.22;;;1.95;;
22078;SDS011;11206;57.696;11.944;2022-11-15T00:19:02;5.95;;;2.20;;
22078;SDS011;11206;57.696;11.944;2022-11-15T00:21:28;5.35;;;1.58;;
22078;SDS011;11206;57.696;11.944;2022-11-15T00:23:54;3.40;;;1.42;;
22078;SDS011;11206;57.696;11.944;2022-11-15T00:26:20;8.15;;;1.90;;
22078;SDS011;11206;57.696;11.944;2022-11-15T00:28:46;8.50;;;1.75;;
22078;SDS011;11206;57.696;11.944;2022-11-15T00:31:13;3.83;;;1.67;;
22078;SDS011;11206;57.696;11.944;2022-11-15T00:33:39;7.63;;;1.50;;
22078;SDS011;11206;57.696;11.944;2022-11-15T00:36:06;5.97;;;2.08;;
22078;SDS011;11206;57.696;11.944;2022-11-15T00:38:34;9.68;;;2.15;;
22078;SDS011;11206;57.696;11.944;2022-11-15T00:41:01;3.30;;;1.58;;
22078;SDS011;11206;57.696;11.944;2022-11-15T00:43:28;3.25;;;1.55;;
22078;SDS011;11206;57.696;11.944;2022-11-15T00:45:54;7.05;;;2.25;;
22078;SDS011;11206;57.696;11.944;2022-11-15T00:48:20;5.68;;;2.47;;
22078;SDS011;11206;57.696;11.944;2022-11-15T00:50:46;5.63;;;2.08;;
22078;SDS011;11206;57.696;11.944;2022-11-15T00:53:12;4.65;;;1.90;;
22078;SDS011;11206;57.696;11.944;2022-11-15T00:55:38;5.22;;;1.50;;
22078;SDS011;11206;57.696;11.944;2022-11-15T00:58:04;5.10;;;1.67;;
22078;SDS011;11206;57.696;11.944;2022-11-15T01:00:30;2.15;;;1.48;;
22078;SDS011;11206;57.696;11.944;2022-11-15T01:02:56;4.20;;;1.70;;
22078;SDS011;11206;57.696;11.944;2022-11-15T01:05:22;4.72;;;1.90;;
22078;SDS011;11206;57.696;11.944;2022-11-15T01:07:52;5.68;;;1.27;;
22078;SDS011;11206;57.696;11.944;2022-11-15T01:10:18;5.15;;;1.92;;
22078;SDS011;11206;57.696;11.944;2022-11-15T01:12:44;5.07;;;1.92;;
22078;SDS011;11206;57.696;11.944;2022-11-15T01:15:10;6.35;;;1.35;;
22078;SDS011;11206;57.696;11.944;2022-11-15T01:17:36;3.03;;;1.45;;
22078;SDS011;11206;57.696;11.944;2022-11-15T01:20:03;5.97;;;2.03;;
22078;SDS011;11206;57.696;11.944;2022-11-15T01:22:29;4.15;;;1.80;;
22078;SDS011;11206;57.696;11.944;2022-11-15T01:24:55;6.70;;;2.17;;
22078;SDS011;11206;57.696;11.944;2022-11-15T01:27:21;2.53;;;1.10;;
22078;SDS011;11206;57.696;11.944;2022-11-15T01:29:47;4.28;;;1.83;;
22078;SDS011;11206;57.696;11.944;2022-11-15T01:32:13;5.97;;;2.40;;
22078;SDS011;11206;57.696;11.944;2022-11-15T01:34:39;5.13;;;1.95;;
22078;SDS011;11206;57.696;11.944;2022-11-15T01:37:05;5.97;;;2.35;;
22078;SDS011;11206;57.696;11.944;2022-11-15T01:39:31;4.38;;;1.45;;
22078;SDS011;11206;57.696;11.944;2022-11-15T01:41:57;5.00;;;2.00;;
22078;SDS011;11206;57.696;11.944;2022-11-15T01:47:24;5.55;;;1.65;;
22078;SDS011;11206;57.696;11.944;2022-11-15T01:49:53;4.95;;;1.77;;
22078;SDS011;11206;57.696;11.944;2022-11-15T01:52:22;7.30;;;1.65;;
22078;SDS011;11206;57.696;11.944;2022-11-15T01:54:50;8.57;;;2.40;;
22078;SDS011;11206;57.696;11.944;2022-11-15T01:57:18;5.55;;;1.90;;
22078;SDS011;11206;57.696;11.944;2022-11-15T01:59:44;12.07;;;2.70;;
22078;SDS011;11206;57.696;11.944;2022-11-15T02:02:11;5.80;;;2.38;;
22078;SDS011;11206;57.696;11.944;2022-11-15T02:04:46;5.82;;;2.00;;
22078;SDS011;11206;57.696;11.944;2022-11-15T02:07:13;6.25;;;1.90;;
22078;SDS011;11206;57.696;11.944;2022-11-15T02:09:40;10.00;;;2.53;;
22078;SDS011;11206;57.696;11.944;2022-11-15T02:12:07;6.88;;;2.00;;
22078;SDS011;11206;57.696;11.944;2022-11-15T02:14:34;4.95;;;1.83;;
22078;SDS011;11206;57.696;11.944;2022-11-15T02:29:49;8.20;;;1.75;;
22078;SDS011;11206;57.696;11.944;2022-11-15T02:37:16;5.35;;;1.80;;
22078;SDS011;11206;57.696;11.944;2022-11-15T02:39:47;5.53;;;2.00;;
22078;SDS011;11206;57.696;11.944;2022-11-15T02:42:17;4.53;;;2.03;;
22078;SDS011;11206;57.696;11.944;2022-11-15T02:45:03;8.35;;;2.35;;
22078;SDS011;11206;57.696;11.944;2022-11-15T02:47:31;5.60;;;2.10;;
22078;SDS011;11206;57.696;11.944;2022-11-15T02:50:00;7.63;;;2.30;;
22078;SDS011;11206;57.696;11.944;2022-11-15T02:52:28;7.18;;;1.95;;
22078;SDS011;11206;57.696;11.944;2022-11-15T02:57:21;3.63;;;1.75;;
22078;SDS011;11206;57.696;11.944;2022-11-15T03:04:44;6.90;;;2.47;;
22078;SDS011;11206;57.696;11.944;2022-11-15T03:07:18;4.35;;;1.50;;
22078;SDS011;11206;57.696;11.944;2022-11-15T03:09:51;4.55;;;2.13;;
22078;SDS011;11206;57.696;11.944;2022-11-15T03:12:29;6.85;;;2.70;;
22078;SDS011;11206;57.696;11.944;2022-11-15T03:14:58;6.47;;;2.50;;
22078;SDS011;11206;57.696;11.944;2022-11-15T03:17:39;6.85;;;1.98;;
22078;SDS011;11206;57.696;11.944;2022-11-15T03:20:08;5.80;;;2.20;;
22078;SDS011;11206;57.696;11.944;2022-11-15T03:22:39;6.45;;;1.63;;
22078;SDS011;11206;57.696;11.944;2022-11-15T03:25:07;5.00;;;1.90;;
22078;SDS011;11206;57.696;11.944;2022-11-15T03:27:38;5.15;;;2.10;;
22078;SDS011;11206;57.696;11.944;2022-11-15T03:30:06;4.72;;;1.80;;
22078;SDS011;11206;57.696;11.944;2022-11-15T03:32:53;6.30;;;1.30;;
22078;SDS011;11206;57.696;11.944;2022-11-15T03:35:21;6.45;;;2.30;;
22078;SDS011;11206;57.696;11.944;2022-11-15T03:40:36;7.20;;;2.38;;
22078;SDS011;11206;57.696;11.944;2022-11-15T03:43:14;5.55;;;2.10;;
22078;SDS011;11206;57.696;11.944;2022-11-15T03:45:51;6.10;;;2.78;;
22078;SDS011;11206;57.696;11.944;2022-11-15T03:48:21;8.50;;;2.45;;
22078;SDS011;11206;57.696;11.944;2022-11-15T03:50:48;6.43;;;2.60;;
22078;SDS011;11206;57.696;11.944;2022-11-15T03:53:14;10.93;;;2.70;;
22078;SDS011;11206;57.696;11.944;2022-11-15T03:55:40;8.10;;;2.50;;
22078;SDS011;11206;57.696;11.944;2022-11-15T03:58:06;9.48;;;2.75;;
22078;SDS011;11206;57.696;11.944;2022-11-15T04:00:33;9.10;;;3.30;;
22078;SDS011;11206;57.696;11.944;2022-11-15T04:02:59;6.68;;;2.67;;
22078;SDS011;11206;57.696;11.944;2022-11-15T04:05:25;7.47;;;2.78;;
22078;SDS011;11206;57.696;11.944;2022-11-15T04:07:51;9.90;;;3.63;;
22078;SDS011;11206;57.696;11.944;2022-11-15T04:10:17;9.80;;;3.72;;
22078;SDS011;11206;57.696;11.944;2022-11-15T04:12:44;10.52;;;2.75;;
22078;SDS011;11206;57.696;11.944;2022-11-15T04:15:18;7.63;;;3.42;;
22078;SDS011;11206;57.696;11.944;2022-11-15T04:17:48;5.00;;;1.90;;
22078;SDS011;11206;57.696;11.944;2022-11-15T04:23:25;8.82;;;3.05;;
22078;SDS011;11206;57.696;11.944;2022-11-15T04:26:14;12.93;;;3.00;;
22078;SDS011;11206;57.696;11.944;2022-11-15T04:28:41;8.70;;;2.80;;
22078;SDS011;11206;57.696;11.944;2022-11-15T04:31:26;10.85;;;3.60;;
22078;SDS011;11206;57.696;11.944;2022-11-15T04:33:52;7.82;;;2.60;;
22078;SDS011;11206;57.696;11.944;2022-11-15T04:36:19;8.38;;;2.83;;
22078;SDS011;11206;57.696;11.944;2022-11-15T04:39:03;8.82;;;2.58;;
22078;SDS011;11206;57.696;11.944;2022-11-15T04:41:29;9.85;;;2.60;;
22078;SDS011;11206;57.696;11.944;2022-11-15T04:44:01;8.70;;;3.60;;
22078;SDS011;11206;57.696;11.944;2022-11-15T04:46:27;8.00;;;2.38;;
22078;SDS011;11206;57.696;11.944;2022-11-15T04:48:53;4.32;;;1.52;;
22078;SDS011;11206;57.696;11.944;2022-11-15T04:51:20;7.78;;;2.80;;
22078;SDS011;11206;57.696;11.944;2022-11-15T04:54:08;8.30;;;3.33;;
22078;SDS011;11206;57.696;11.944;2022-11-15T04:56:34;9.02;;;3.30;;
22078;SDS011;11206;57.696;11.944;2022-11-15T04:59:00;11.55;;;3.83;;
22078;SDS011;11206;57.696;11.944;2022-11-15T05:01:36;7.65;;;3.13;;
22078;SDS011;11206;57.696;11.944;2022-11-15T05:04:05;8.85;;;2.80;;
22078;SDS011;11206;57.696;11.944;2022-11-15T05:06:48;7.35;;;2.58;;
22078;SDS011;11206;57.696;11.944;2022-11-15T05:09:17;5.75;;;2.38;;
22078;SDS011;11206;57.696;11.944;2022-11-15T05:11:44;10.40;;;3.63;;
22078;SDS011;11206;57.696;11.944;2022-11-15T05:14:10;7.70;;;2.63;;
22078;SDS011;11206;57.696;11.944;2022-11-15T05:16:36;4.75;;;2.50;;
22078;SDS011;11206;57.696;11.944;2022-11-15T05:19:02;8.73;;;2.42;;
22078;SDS011;11206;57.696;11.944;2022-11-15T05:21:29;6.53;;;2.80;;
22078;SDS011;11206;57.696;11.944;2022-11-15T05:23:55;5.88;;;2.28;;
22078;SDS011;11206;57.696;11.944;2022-11-15T05:26:41;14.13;;;2.40;;
22078;SDS011;11206;57.696;11.944;2022-11-15T05:29:08;4.78;;;2.13;;
22078;SDS011;11206;57.696;11.944;2022-11-15T05:31:36;6.60;;;2.53;;
22078;SDS011;11206;57.696;11.944;2022-11-15T05:34:04;6.53;;;2.00;;
22078;SDS011;11206;57.696;11.944;2022-11-15T05:36:32;5.72;;;1.98;;
22078;SDS011;11206;57.696;11.944;2022-11-15T05:38:59;6.95;;;3.13;;
22078;SDS011;11206;57.696;11.944;2022-11-15T05:41:35;9.30;;;3.53;;
22078;SDS011;11206;57.696;11.944;2022-11-15T05:44:03;6.57;;;2.40;;
22078;SDS011;11206;57.696;11.944;2022-11-15T05:46:31;7.43;;;2.42;;
22078;SDS011;11206;57.696;11.944;2022-11-15T05:48:59;3.92;;;1.27;;
22078;SDS011;11206;57.696;11.944;2022-11-15T05:51:25;6.43;;;2.45;;
22078;SDS011;11206;57.696;11.944;2022-11-15T05:53:54;10.10;;;2.40;;
22078;SDS011;11206;57.696;11.944;2022-11-15T05:56:24;9.02;;;3.15;;
22078;SDS011;11206;57.696;11.944;2022-11-15T05:58:52;7.57;;;2.95;;
22078;SDS011;11206;57.696;11.944;2022-11-15T06:01:19;7.57;;;2.60;;
22078;SDS011;11206;57.696;11.944;2022-11-15T06:03:45;8.82;;;3.08;;
22078;SDS011;11206;57.696;11.944;2022-11-15T06:06:11;4.88;;;2.08;;
22078;SDS011;11206;57.696;11.944;2022-11-15T06:08:37;6.63;;;2.53;;
22078;SDS011;11206;57.696;11.944;2022-11-15T06:11:04;7.95;;;2.45;;
22078;SDS011;11206;57.696;11.944;2022-11-15T06:13:30;8.02;;;2.55;;
22078;SDS011;11206;57.696;11.944;2022-11-15T06:15:57;15.45;;;2.72;;
22078;SDS011;11206;57.696;11.944;2022-11-15T06:18:23;7.65;;;2.88;;
22078;SDS011;11206;57.696;11.944;2022-11-15T06:20:50;5.60;;;1.90;;
22078;SDS011;11206;57.696;11.944;2022-11-15T06:23:16;6.20;;;2.30;;
22078;SDS011;11206;57.696;11.944;2022-11-15T06:25:43;5.55;;;2.35;;
22078;SDS011;11206;57.696;11.944;2022-11-15T06:28:10;8.80;;;2.90;;
22078;SDS011;11206;57.696;11.944;2022-11-15T06:30:36;9.93;;;2.53;;
22078;SDS011;11206;57.696;11.944;2022-11-15T06:33:03;9.40;;;2.47;;
22078;SDS011;11206;57.696;11.944;2022-11-15T06:35:30;8.38;;;3.22;;
22078;SDS011;11206;57.696;11.944;2022-11-15T06:38:01;5.82;;;2.28;;
22078;SDS011;11206;57.696;11.944;2022-11-15T06:40:32;6.95;;;2.90;;
22078;SDS011;11206;57.696;11.944;2022-11-15T06:42:59;7.20;;;2.17;;
22078;SDS011;11206;57.696;11.944;2022-11-15T06:45:25;13.15;;;2.70;;
22078;SDS011;11206;57.696;11.944;2022-11-15T06:47:51;5.50;;;2.38;;
22078;SDS011;11206;57.696;11.944;2022-11-15T06:50:18;4.78;;;2.13;;
22078;SDS011;11206;57.696;11.944;2022-11-15T06:52:44;5.25;;;1.73;;
22078;SDS011;11206;57.696;11.944;2022-11-15T06:55:10;8.30;;;2.40;;
22078;SDS011;11206;57.696;11.944;2022-11-15T06:57:36;3.88;;;1.10;;
22078;SDS011;11206;57.696;11.944;2022-11-15T07:00:06;6.05;;;2.20;;
22078;SDS011;11206;57.696;11.944;2022-11-15T07:02:33;7.03;;;2.03;;
22078;SDS011;11206;57.696;11.944;2022-11-15T07:04:59;11.15;;;2.15;;
22078;SDS011;11206;57.696;11.944;2022-11-15T07:07:25;6.97;;;2.13;;
22078;SDS011;11206;57.696;11.944;2022-11-15T07:09:52;6.30;;;2.28;;
22078;SDS011;11206;57.696;11.944;2022-11-15T07:12:18;6.15;;;1.90;;
22078;SDS011;11206;57.696;11.944;2022-11-15T07:14:45;8.68;;;2.45;;
22078;SDS011;11206;57.696;11.944;2022-11-15T07:17:11;4.57;;;1.60;;
22078;SDS011;11206;57.696;11.944;2022-11-15T07:19:37;6.80;;;2.90;;
22078;SDS011;11206;57.696;11.944;2022-11-15T07:22:03;7.72;;;2.53;;
22078;SDS011;11206;57.696;11.944;2022-11-15T07:24:29;8.73;;;1.75;;
22078;SDS011;11206;57.696;11.944;2022-11-15T07:26:55;5.72;;;1.58;;
22078;SDS011;11206;57.696;11.944;2022-11-15T07:29:21;6.00;;;2.15;;
22078;SDS011;11206;57.696;11.944;2022-11-15T07:31:48;6.00;;;1.00;;
22078;SDS011;11206;57.696;11.944;2022-11-15T07:34:15;6.03;;;2.90;;
22078;SDS011;11206;57.696;11.944;2022-11-15T07:36:43;4.43;;;1.70;;
22078;SDS011;11206;57.696;11.944;2022-11-15T07:39:09;6.00;;;1.63;;
22078;SDS011;11206;57.696;11.944;2022-11-15T07:41:56;4.63;;;1.40;;
22078;SDS011;11206;57.696;11.944;2022-11-15T07:44:41;3.67;;;1.80;;
22078;SDS011;11206;57.696;11.944;2022-11-15T07:47:07;7.18;;;2.05;;
22078;SDS011;11206;57.696;11.944;2022-11-15T07:49:34;4.60;;;1.98;;
22078;SDS011;11206;57.696;11.944;2022-11-15T07:52:01;4.18;;;2.03;;
22078;SDS011;11206;57.696;11.944;2022-11-15T07:54:27;3.25;;;1.58;;
22078;SDS011;11206;57.696;11.944;2022-11-15T07:56:53;7.38;;;2.47;;
22078;SDS011;11206;57.696;11.944;2022-11-15T07:59:22;2.58;;;1.02;;
22078;SDS011;11206;57.696;11.944;2022-11-15T08:01:48;5.05;;;1.45;;
22078;SDS011;11206;57.696;11.944;2022-11-15T08:04:14;4.70;;;2.03;;
22078;SDS011;11206;57.696;11.944;2022-11-15T08:06:40;5.07;;;2.50;;
22078;SDS011;11206;57.696;11.944;2022-11-15T08:09:06;4.10;;;1.80;;
22078;SDS011;11206;57.696;11.944;2022-11-15T08:11:34;3.42;;;1.85;;
22078;SDS011;11206;57.696;11.944;2022-11-15T08:14:03;7.30;;;2.10;;
22078;SDS011;11206;57.696;11.944;2022-11-15T08:16:31;3.55;;;1.63;;
22078;SDS011;11206;57.696;11.944;2022-11-15T08:18:57;9.70;;;1.80;;
22078;SDS011;11206;57.696;11.944;2022-11-15T08:21:25;6.80;;;2.42;;
22078;SDS011;11206;57.696;11.944;2022-11-15T08:23:52;5.05;;;1.67;;
22078;SDS011;11206;57.696;11.944;2022-11-15T08:26:19;7.53;;;2.30;;
22078;SDS011;11206;57.696;11.944;2022-11-15T08:28:46;3.40;;;1.38;;
22078;SDS011;11206;57.696;11.944;2022-11-15T08:31:13;10.35;;;1.67;;
22078;SDS011;11206;57.696;11.944;2022-11-15T08:33:40;4.05;;;2.47;;
22078;SDS011;11206;57.696;11.944;2022-11-15T08:36:06;5.97;;;1.75;;
22078;SDS011;11206;57.696;11.944;2022-11-15T08:38:32;6.95;;;1.85;;
22078;SDS011;11206;57.696;11.944;2022-11-15T08:41:01;4.63;;;2.20;;
22078;SDS011;11206;57.696;11.944;2022-11-15T08:43:28;3.08;;;1.45;;
22078;SDS011;11206;57.696;11.944;2022-11-15T08:45:57;8.57;;;1.83;;
22078;SDS011;11206;57.696;11.944;2022-11-15T08:48:24;4.13;;;1.80;;
22078;SDS011;11206;57.696;11.944;2022-11-15T08:50:55;9.77;;;1.60;;
22078;SDS011;11206;57.696;11.944;2022-11-15T08:53:42;5.07;;;1.80;;
22078;SDS011;11206;57.696;11.944;2022-11-15T08:56:10;3.95;;;1.20;;
22078;SDS011;11206;57.696;11.944;2022-11-15T08:58:36;4.10;;;1.48;;
22078;SDS011;11206;57.696;11.944;2022-11-15T09:01:03;3.22;;;1.45;;
22078;SDS011;11206;57.696;11.944;2022-11-15T09:03:29;5.65;;;1.60;;
22078;SDS011;11206;57.696;11.944;2022-11-15T09:05:56;7.40;;;2.53;;
22078;SDS011;11206;57.696;11.944;2022-11-15T09:08:22;4.10;;;1.65;;
22078;SDS011;11206;57.696;11.944;2022-11-15T09:10:50;3.63;;;1.25;;
22078;SDS011;11206;57.696;11.944;2022-11-15T09:13:17;6.00;;;1.27;;
22078;SDS011;11206;57.696;11.944;2022-11-15T09:15:43;4.57;;;1.30;;
22078;SDS011;11206;57.696;11.944;2022-11-15T09:18:09;6.90;;;1.80;;
22078;SDS011;11206;57.696;11.944;2022-11-15T09:20:35;4.35;;;1.08;;
22078;SDS011;11206;57.696;11.944;2022-11-15T09:23:02;2.92;;;1.35;;
22078;SDS011;11206;57.696;11.944;2022-11-15T09:25:28;4.28;;;1.80;;
22078;SDS011;11206;57.696;11.944;2022-11-15T09:27:55;4.03;;;1.10;;
22078;SDS011;11206;57.696;11.944;2022-11-15T09:30:22;8.68;;;2.78;;
22078;SDS011;11206;57.696;11.944;2022-11-15T09:32:48;3.13;;;1.20;;
22078;SDS011;11206;57.696;11.944;2022-11-15T09:35:14;4.05;;;1.20;;
22078;SDS011;11206;57.696;11.944;2022-11-15T09:37:40;6.70;;;1.70;;
22078;SDS011;11206;57.696;11.944;2022-11-15T09:40:08;8.90;;;1.15;;
22078;SDS011;11206;57.696;11.944;2022-11-15T09:45:22;6.68;;;1.65;;
22078;SDS011;11206;57.696;11.944;2022-11-15T09:47:54;4.93;;;1.60;;
22078;SDS011;11206;57.696;11.944;2022-11-15T09:50:28;2.97;;;1.05;;
22078;SDS011;11206;57.696;11.944;2022-11-15T09:52:57;3.50;;;1.20;;
22078;SDS011;11206;57.696;11.944;2022-11-15T09:55:25;3.90;;;1.27;;
22078;SDS011;11206;57.696;11.944;2022-11-15T09:58:05;4.03;;;1.88;;
22078;SDS011;11206;57.696;11.944;2022-11-15T10:00:34;5.32;;;2.28;;
22078;SDS011;11206;57.696;11.944;2022-11-15T10:03:08;5.93;;;1.30;;
22078;SDS011;11206;57.696;11.944;2022-11-15T10:05:37;3.00;;;1.45;;
22078;SDS011;11206;57.696;11.944;2022-11-15T10:10:49;4.07;;;1.42;;
22078;SDS011;11206;57.696;11.944;2022-11-15T10:13:19;7.53;;;1.85;;
22078;SDS011;11206;57.696;11.944;2022-11-15T10:15:46;4.05;;;1.08;;
22078;SDS011;11206;57.696;11.944;2022-11-15T10:20:50;6.28;;;1.60;;
22078;SDS011;11206;57.696;11.944;2022-11-15T10:23:19;5.72;;;1.33;;
22078;SDS011;11206;57.696;11.944;2022-11-15T10:25:46;4.85;;;1.88;;
22078;SDS011;11206;57.696;11.944;2022-11-15T10:30:44;4.95;;;1.40;;
22078;SDS011;11206;57.696;11.944;2022-11-15T10:33:22;7.25;;;2.10;;
22078;SDS011;11206;57.696;11.944;2022-11-15T10:36:13;3.67;;;1.13;;
22078;SDS011;11206;57.696;11.944;2022-11-15T10:41:15;4.38;;;1.70;;
22078;SDS011;11206;57.696;11.944;2022-11-15T10:43:41;6.00;;;1.73;;
22078;SDS011;11206;57.696;11.944;2022-11-15T10:46:21;3.53;;;1.50;;
22078;SDS011;11206;57.696;11.944;2022-11-15T10:48:47;5.60;;;1.50;;
22078;SDS011;11206;57.696;11.944;2022-11-15T10:51:20;2.95;;;1.00;;
22078;SDS011;11206;57.696;11.944;2022-11-15T10:56:28;7.18;;;2.03;;
22078;SDS011;11206;57.696;11.944;2022-11-15T10:58:55;2.90;;;1.10;;
22078;SDS011;11206;57.696;11.944;2022-11-15T11:01:25;5.13;;;2.08;;
22078;SDS011;11206;57.696;11.944;2022-11-15T11:04:02;2.58;;;0.70;;
22078;SDS011;11206;57.696;11.944;2022-11-15T11:06:28;3.72;;;1.67;;
22078;SDS011;11206;57.696;11.944;2022-11-15T11:08:56;3.20;;;1.02;;
22078;SDS011;11206;57.696;11.944;2022-11-15T11:11:23;2.47;;;0.75;;
22078;SDS011;11206;57.696;11.944;2022-11-15T11:13:49;5.90;;;1.80;;
22078;SDS011;11206;57.696;11.944;2022-11-15T11:19:02;3.13;;;1.25;;
22078;SDS011;11206;57.696;11.944;2022-11-15T11:24:02;4.70;;;1.52;;
22078;SDS011;11206;57.696;11.944;2022-11-15T11:31:49;10.98;;;1.80;;
22078;SDS011;11206;57.696;11.944;2022-11-15T11:42:30;4.82;;;1.58;;
22078;SDS011;11206;57.696;11.944;2022-11-15T11:50:27;3.97;;;1.52;;
22078;SDS011;11206;57.696;11.944;2022-11-15T11:58:19;4.40;;;1.25;;
22078;SDS011;11206;57.696;11.944;2022-11-15T12:00:57;4.10;;;1.15;;
22078;SDS011;11206;57.696;11.944;2022-11-15T12:03:33;3.03;;;0.98;;
22078;SDS011;11206;57.696;11.944;2022-11-15T12:08:46;3.10;;;0.93;;
22078;SDS011;11206;57.696;11.944;2022-11-15T12:14:42;3.42;;;1.20;;
22078;SDS011;11206;57.696;11.944;2022-11-15T12:17:29;7.68;;;1.30;;
22078;SDS011;11206;57.696;11.944;2022-11-15T12:19:57;5.47;;;1.23;;
22078;SDS011;11206;57.696;11.944;2022-11-15T12:28:31;3.00;;;1.13;;
22078;SDS011;11206;57.696;11.944;2022-11-15T12:31:10;2.42;;;0.90;;
22078;SDS011;11206;57.696;11.944;2022-11-15T12:33:56;9.48;;;1.08;;
22078;SDS011;11206;57.696;11.944;2022-11-15T12:39:06;3.65;;;1.00;;
22078;SDS011;11206;57.696;11.944;2022-11-15T12:50:11;3.95;;;1.10;;
22078;SDS011;11206;57.696;11.944;2022-11-15T12:56:29;2.80;;;0.88;;
22078;SDS011;11206;57.696;11.944;2022-11-15T12:58:55;3.22;;;0.70;;
22078;SDS011;11206;57.696;11.944;2022-11-15T13:01:54;6.97;;;0.90;;
22078;SDS011;11206;57.696;11.944;2022-11-15T13:04:25;3.00;;;0.80;;
22078;SDS011;11206;57.696;11.944;2022-11-15T13:06:56;2.10;;;0.80;;
22078;SDS011;11206;57.696;11.944;2022-11-15T13:17:40;4.65;;;0.93;;
22078;SDS011;11206;57.696;11.944;2022-11-15T13:28:43;2.28;;;0.85;;
22078;SDS011;11206;57.696;11.944;2022-11-15T13:33:57;0.63;;;0.40;;
22078;SDS011;11206;57.696;11.944;2022-11-15T13:36:36;1.92;;;0.68;;
22078;SDS011;11206;57.696;11.944;2022-11-15T13:41:53;0.68;;;0.20;;
22078;SDS011;11206;57.696;11.944;2022-11-15T13:44:23;0.60;;;0.30;;
22078;SDS011;11206;57.696;11.944;2022-11-15T13:47:27;1.60;;;0.45;;
22078;SDS011;11206;57.696;11.944;2022-11-15T13:49:56;1.27;;;0.55;;
22078;SDS011;11206;57.696;11.944;2022-11-15T13:52:30;0.95;;;0.40;;
22078;SDS011;11206;57.696;11.944;2022-11-15T13:55:01;1.92;;;0.60;;
22078;SDS011;11206;57.696;11.944;2022-11-15T14:11:30;1.35;;;0.50;;
22078;SDS011;11206;57.696;11.944;2022-11-15T14:14:19;1.38;;;0.40;;
22078;SDS011;11206;57.696;11.944;2022-11-15T14:16:48;1.88;;;0.73;;
22078;SDS011;11206;57.696;11.944;2022-11-15T14:22:29;0.68;;;0.35;;
22078;SDS011;11206;57.696;11.944;2022-11-15T14:28:11;0.57;;;0.38;;
22078;SDS011;11206;57.696;11.944;2022-11-15T14:30:40;4.75;;;0.60;;
22078;SDS011;11206;57.696;11.944;2022-11-15T14:36:17;1.58;;;0.20;;
22078;SDS011;11206;57.696;11.944;2022-11-15T14:39:05;1.58;;;0.30;;
22078;SDS011;11206;57.696;11.944;2022-11-15T14:41:35;0.63;;;0.30;;
22078;SDS011;11206;57.696;11.944;2022-11-15T14:44:06;0.95;;;0.30;;
22078;SDS011;11206;57.696;11.944;2022-11-15T14:49:36;0.20;;;0.20;;
22078;SDS011;11206;57.696;11.944;2022-11-15T14:52:32;0.93;;;0.30;;
22078;SDS011;11206;57.696;11.944;2022-11-15T14:55:00;0.20;;;0.20;;
22078;SDS011;11206;57.696;11.944;2022-11-15T14:57:27;0.80;;;0.40;;
22078;SDS011;11206;57.696;11.944;2022-11-15T14:59:55;1.60;;;0.35;;
22078;SDS011;11206;57.696;11.944;2022-11-15T15:02:36;2.65;;;0.38;;
22078;SDS011;11206;57.696;11.944;2022-11-15T15:05:32;0.25;;;0.08;;
22078;SDS011;11206;57.696;11.944;2022-11-15T15:08:15;1.55;;;0.25;;
22078;SDS011;11206;57.696;11.944;2022-11-15T15:10:42;0.60;;;0.20;;
22078;SDS011;11206;57.696;11.944;2022-11-15T15:13:16;0.73;;;0.30;;
22078;SDS011;11206;57.696;11.944;2022-11-15T15:15:46;3.03;;;0.32;;
22078;SDS011;11206;57.696;11.944;2022-11-15T15:24:04;1.75;;;0.40;;
22078;SDS011;11206;57.696;11.944;2022-11-15T15:26:30;0.90;;;0.32;;
22078;SDS011;11206;57.696;11.944;2022-11-15T15:29:01;0.32;;;0.20;;
22078;SDS011;11206;57.696;11.944;2022-11-15T15:31:27;0.15;;;0.10;;
22078;SDS011;11206;57.696;11.944;2022-11-15T15:34:13;1.35;;;0.35;;
22078;SDS011;11206;57.696;11.944;2022-11-15T15:36:39;1.75;;;0.30;;
22078;SDS011;11206;57.696;11.944;2022-11-15T15:39:08;0.60;;;0.15;;
22078;SDS011;11206;57.696;11.944;2022-11-15T15:41:34;1.80;;;0.10;;
22078;SDS011;11206;57.696;11.944;2022-11-15T15:44:00;1.33;;;0.10;;
22078;SDS011;11206;57.696;11.944;2022-11-15T15:46:27;0.35;;;0.30;;
22078;SDS011;11206;57.696;11.944;2022-11-15T15:49:23;0.70;;;0.20;;
22078;SDS011;11206;57.696;11.944;2022-11-15T15:51:49;0.15;;;0.08;;
22078;SDS011;11206;57.696;11.944;2022-11-15T15:54:15;0.45;;;0.10;;
22078;SDS011;11206;57.696;11.944;2022-11-15T15:56:41;2.35;;;0.30;;
22078;SDS011;11206;57.696;11.944;2022-11-15T15:59:07;0.08;;;0.08;;
22078;SDS011;11206;57.696;11.944;2022-11-15T16:01:33;0.05;;;0.05;;
22078;SDS011;11206;57.696;11.944;2022-11-15T16:04:03;0.10;;;0.10;;
22078;SDS011;11206;57.696;11.944;2022-11-15T16:06:33;0.73;;;0.10;;
22078;SDS011;11206;57.696;11.944;2022-11-15T16:09:12;0.20;;;0.00;;
22078;SDS011;11206;57.696;11.944;2022-11-15T16:14:44;1.77;;;0.10;;
22078;SDS011;11206;57.696;11.944;2022-11-15T16:20:36;1.55;;;0.10;;
22078;SDS011;11206;57.696;11.944;2022-11-15T16:23:12;2.45;;;0.10;;
22078;SDS011;11206;57.696;11.944;2022-11-15T16:25:46;0.55;;;0.20;;
22078;SDS011;11206;57.696;11.944;2022-11-15T16:28:33;6.68;;;0.10;;
22078;SDS011;11206;57.696;11.944;2022-11-15T16:31:00;0.40;;;0.00;;
22078;SDS011;11206;57.696;11.944;2022-11-15T16:38:46;1.55;;;0.10;;
22078;SDS011;11206;57.696;11.944;2022-11-15T16:41:12;0.00;;;0.00;;
22078;SDS011;11206;57.696;11.944;2022-11-15T16:43:38;0.30;;;0.13;;
22078;SDS011;11206;57.696;11.944;2022-11-15T16:46:17;2.75;;;0.30;;
22078;SDS011;11206;57.696;11.944;2022-11-15T16:51:32;0.60;;;0.10;;
22078;SDS011;11206;57.696;11.944;2022-11-15T16:53:58;0.40;;;0.10;;
22078;SDS011;11206;57.696;11.944;2022-11-15T16:56:28;0.50;;;0.13;;
22078;SDS011;11206;57.696;11.944;2022-11-15T16:58:55;5.07;;;0.20;;
22078;SDS011;11206;57.696;11.944;2022-11-15T17:01:25;4.20;;;0.13;;
22078;SDS011;11206;57.696;11.944;2022-11-15T17:03:52;2.97;;;0.30;;
22078;SDS011;11206;57.696;11.944;2022-11-15T17:06:20;0.57;;;0.20;;
22078;SDS011;11206;57.696;11.944;2022-11-15T17:08:47;0.50;;;0.20;;
22078;SDS011;11206;57.696;11.944;2022-11-15T17:11:14;0.20;;;0.17;;
22078;SDS011;11206;57.696;11.944;2022-11-15T17:13:41;0.45;;;0.15;;
22078;SDS011;11206;57.696;11.944;2022-11-15T17:16:09;0.10;;;0.08;;
22078;SDS011;11206;57.696;11.944;2022-11-15T17:18:54;1.20;;;0.22;;
22078;SDS011;11206;57.696;11.944;2022-11-15T17:21:21;1.80;;;0.20;;
22078;SDS011;11206;57.696;11.944;2022-11-15T17:26:31;0.98;;;0.10;;
22078;SDS011;11206;57.696;11.944;2022-11-15T17:28:58;1.25;;;0.40;;
22078;SDS011;11206;57.696;11.944;2022-11-15T17:31:25;2.15;;;0.25;;
22078;SDS011;11206;57.696;11.944;2022-11-15T17:33:52;0.47;;;0.10;;
22078;SDS011;11206;57.696;11.944;2022-11-15T17:36:30;1.02;;;0.25;;
22078;SDS011;11206;57.696;11.944;2022-11-15T17:39:25;2.08;;;0.30;;
22078;SDS011;11206;57.696;11.944;2022-11-15T17:41:52;0.85;;;0.08;;
22078;SDS011;11206;57.696;11.944;2022-11-15T17:44:18;1.38;;;0.32;;
22078;SDS011;11206;57.696;11.944;2022-11-15T17:46:44;0.65;;;0.20;;